sensor_id;sensor_type;location;lat;lon;timestamp;P1;durP1;ratioP1;P2;durP2;ratioP2
18752;SDS011;9505;50.882;5.350;2023-02-15T00:01:50;88.30;;;17.20;;
18752;SDS011;9505;50.882;5.350;2023-02-15T00:04:17;72.30;;;15.23;;
18752;SDS011;9505;50.882;5.350;2023-02-15T00:06:44;70.50;;;14.00;;
18752;SDS011;9505;50.882;5.350;2023-02-15T00:09:10;82.20;;;17.70;;
18752;SDS011;9505;50.882;5.350;2023-02-15T00:11:37;103.50;;;19.13;;
18752;SDS011;9505;50.882;5.350;2023-02-15T00:14:06;74.57;;;14.93;;
18752;SDS011;9505;50.882;5.350;2023-02-15T00:16:33;75.23;;;16.63;;
18752;SDS011;9505;50.882;5.350;2023-02-15T00:18:59;77.20;;;16.57;;
18752;SDS011;9505;50.882;5.350;2023-02-15T00:21:27;72.93;;;15.60;;
18752;SDS011;9505;50.882;5.350;2023-02-15T00:23:56;83.10;;;17.00;;
18752;SDS011;9505;50.882;5.350;2023-02-15T00:26:23;83.70;;;18.60;;
18752;SDS011;9505;50.882;5.350;2023-02-15T00:28:49;88.60;;;17.65;;
18752;SDS011;9505;50.882;5.350;2023-02-15T00:31:16;81.33;;;17.70;;
18752;SDS011;9505;50.882;5.350;2023-02-15T00:33:41;80.68;;;15.80;;
18752;SDS011;9505;50.882;5.350;2023-02-15T00:36:07;70.05;;;14.88;;
18752;SDS011;9505;50.882;5.350;2023-02-15T00:38:34;71.27;;;16.73;;
18752;SDS011;9505;50.882;5.350;2023-02-15T00:41:01;77.73;;;16.60;;
18752;SDS011;9505;50.882;5.350;2023-02-15T00:43:28;77.00;;;17.33;;
18752;SDS011;9505;50.882;5.350;2023-02-15T00:45:55;73.60;;;15.77;;
18752;SDS011;9505;50.882;5.350;2023-02-15T00:48:21;66.03;;;14.43;;
18752;SDS011;9505;50.882;5.350;2023-02-15T00:50:54;67.03;;;15.60;;
18752;SDS011;9505;50.882;5.350;2023-02-15T00:53:22;65.90;;;17.13;;
18752;SDS011;9505;50.882;5.350;2023-02-15T00:55:48;83.63;;;18.37;;
18752;SDS011;9505;50.882;5.350;2023-02-15T00:58:14;77.07;;;18.27;;
18752;SDS011;9505;50.882;5.350;2023-02-15T01:00:41;83.83;;;18.10;;
18752;SDS011;9505;50.882;5.350;2023-02-15T01:03:09;73.60;;;16.80;;
18752;SDS011;9505;50.882;5.350;2023-02-15T01:05:36;77.43;;;17.80;;
18752;SDS011;9505;50.882;5.350;2023-02-15T01:08:02;83.17;;;17.07;;
18752;SDS011;9505;50.882;5.350;2023-02-15T01:10:27;76.60;;;17.30;;
18752;SDS011;9505;50.882;5.350;2023-02-15T01:12:54;68.28;;;17.23;;
18752;SDS011;9505;50.882;5.350;2023-02-15T01:15:20;75.13;;;16.90;;
18752;SDS011;9505;50.882;5.350;2023-02-15T01:17:46;74.90;;;17.60;;
18752;SDS011;9505;50.882;5.350;2023-02-15T01:20:23;72.30;;;16.63;;
18752;SDS011;9505;50.882;5.350;2023-02-15T01:22:51;57.58;;;13.35;;
18752;SDS011;9505;50.882;5.350;2023-02-15T01:25:20;65.07;;;15.33;;
18752;SDS011;9505;50.882;5.350;2023-02-15T01:27:47;63.10;;;14.40;;
18752;SDS011;9505;50.882;5.350;2023-02-15T01:30:13;74.80;;;15.40;;
18752;SDS011;9505;50.882;5.350;2023-02-15T01:32:40;70.77;;;17.33;;
18752;SDS011;9505;50.882;5.350;2023-02-15T01:35:07;79.10;;;18.20;;
18752;SDS011;9505;50.882;5.350;2023-02-15T01:37:33;83.27;;;16.07;;
18752;SDS011;9505;50.882;5.350;2023-02-15T01:40:00;78.77;;;16.67;;
18752;SDS011;9505;50.882;5.350;2023-02-15T01:42:27;71.90;;;15.00;;
18752;SDS011;9505;50.882;5.350;2023-02-15T01:44:57;71.17;;;16.10;;
18752;SDS011;9505;50.882;5.350;2023-02-15T01:47:38;74.37;;;17.90;;
18752;SDS011;9505;50.882;5.350;2023-02-15T01:52:50;66.80;;;15.10;;
18752;SDS011;9505;50.882;5.350;2023-02-15T01:55:26;81.73;;;17.70;;
18752;SDS011;9505;50.882;5.350;2023-02-15T01:57:57;72.03;;;16.88;;
18752;SDS011;9505;50.882;5.350;2023-02-15T02:00:23;84.53;;;20.50;;
18752;SDS011;9505;50.882;5.350;2023-02-15T02:02:50;70.03;;;18.47;;
18752;SDS011;9505;50.882;5.350;2023-02-15T02:05:20;71.60;;;17.03;;
18752;SDS011;9505;50.882;5.350;2023-02-15T02:07:46;73.03;;;18.97;;
18752;SDS011;9505;50.882;5.350;2023-02-15T02:10:16;79.40;;;19.03;;
18752;SDS011;9505;50.882;5.350;2023-02-15T02:12:43;79.57;;;17.33;;
18752;SDS011;9505;50.882;5.350;2023-02-15T02:15:11;79.03;;;17.50;;
18752;SDS011;9505;50.882;5.350;2023-02-15T02:36:24;79.90;;;16.30;;
18752;SDS011;9505;50.882;5.350;2023-02-15T02:39:07;78.90;;;16.27;;
18752;SDS011;9505;50.882;5.350;2023-02-15T02:49:58;72.80;;;16.90;;
18752;SDS011;9505;50.882;5.350;2023-02-15T02:52:34;74.07;;;17.87;;
18752;SDS011;9505;50.882;5.350;2023-02-15T02:55:03;88.67;;;19.00;;
18752;SDS011;9505;50.882;5.350;2023-02-15T02:57:36;77.77;;;16.87;;
18752;SDS011;9505;50.882;5.350;2023-02-15T03:00:07;95.07;;;18.13;;
18752;SDS011;9505;50.882;5.350;2023-02-15T03:02:36;82.80;;;19.27;;
18752;SDS011;9505;50.882;5.350;2023-02-15T03:05:06;81.33;;;17.83;;
18752;SDS011;9505;50.882;5.350;2023-02-15T03:07:38;68.60;;;14.50;;
18752;SDS011;9505;50.882;5.350;2023-02-15T03:10:06;80.73;;;17.97;;
18752;SDS011;9505;50.882;5.350;2023-02-15T03:12:34;81.03;;;19.20;;
18752;SDS011;9505;50.882;5.350;2023-02-15T03:15:06;85.43;;;19.03;;
18752;SDS011;9505;50.882;5.350;2023-02-15T03:17:43;70.63;;;17.70;;
18752;SDS011;9505;50.882;5.350;2023-02-15T03:20:16;80.53;;;16.23;;
18752;SDS011;9505;50.882;5.350;2023-02-15T03:25:41;107.13;;;18.63;;
18752;SDS011;9505;50.882;5.350;2023-02-15T03:28:15;71.30;;;16.83;;
18752;SDS011;9505;50.882;5.350;2023-02-15T03:30:45;69.23;;;16.23;;
18752;SDS011;9505;50.882;5.350;2023-02-15T03:33:14;85.57;;;18.87;;
18752;SDS011;9505;50.882;5.350;2023-02-15T03:35:44;75.23;;;17.73;;
18752;SDS011;9505;50.882;5.350;2023-02-15T03:38:16;76.13;;;18.73;;
18752;SDS011;9505;50.882;5.350;2023-02-15T03:40:46;64.37;;;15.83;;
18752;SDS011;9505;50.882;5.350;2023-02-15T03:43:51;92.00;;;18.93;;
18752;SDS011;9505;50.882;5.350;2023-02-15T03:46:28;76.23;;;17.00;;
18752;SDS011;9505;50.882;5.350;2023-02-15T03:49:17;77.73;;;16.73;;
18752;SDS011;9505;50.882;5.350;2023-02-15T03:52:05;75.77;;;16.90;;
18752;SDS011;9505;50.882;5.350;2023-02-15T03:54:33;85.80;;;18.53;;
18752;SDS011;9505;50.882;5.350;2023-02-15T03:57:17;73.27;;;15.53;;
18752;SDS011;9505;50.882;5.350;2023-02-15T04:00:08;80.17;;;19.07;;
18752;SDS011;9505;50.882;5.350;2023-02-15T04:03:04;81.27;;;15.77;;
18752;SDS011;9505;50.882;5.350;2023-02-15T04:05:37;65.80;;;15.07;;
18752;SDS011;9505;50.882;5.350;2023-02-15T04:08:03;85.20;;;18.93;;
18752;SDS011;9505;50.882;5.350;2023-02-15T04:10:29;80.70;;;19.47;;
18752;SDS011;9505;50.882;5.350;2023-02-15T04:13:13;91.87;;;19.70;;
18752;SDS011;9505;50.882;5.350;2023-02-15T04:15:39;86.33;;;20.23;;
18752;SDS011;9505;50.882;5.350;2023-02-15T04:18:23;73.33;;;18.87;;
18752;SDS011;9505;50.882;5.350;2023-02-15T04:21:08;80.73;;;16.73;;
18752;SDS011;9505;50.882;5.350;2023-02-15T04:23:52;76.67;;;18.73;;
18752;SDS011;9505;50.882;5.350;2023-02-15T04:26:36;75.47;;;19.77;;
18752;SDS011;9505;50.882;5.350;2023-02-15T04:29:02;103.93;;;21.53;;
18752;SDS011;9505;50.882;5.350;2023-02-15T04:31:27;74.53;;;19.33;;
18752;SDS011;9505;50.882;5.350;2023-02-15T04:33:53;93.43;;;19.70;;
18752;SDS011;9505;50.882;5.350;2023-02-15T04:36:18;81.53;;;18.93;;
18752;SDS011;9505;50.882;5.350;2023-02-15T04:38:44;76.77;;;19.73;;
18752;SDS011;9505;50.882;5.350;2023-02-15T04:41:09;89.97;;;20.43;;
18752;SDS011;9505;50.882;5.350;2023-02-15T04:43:37;75.00;;;15.67;;
18752;SDS011;9505;50.882;5.350;2023-02-15T04:46:02;80.33;;;16.33;;
18752;SDS011;9505;50.882;5.350;2023-02-15T04:48:28;67.97;;;14.23;;
18752;SDS011;9505;50.882;5.350;2023-02-15T04:50:54;76.50;;;16.27;;
18752;SDS011;9505;50.882;5.350;2023-02-15T04:53:20;75.33;;;16.70;;
18752;SDS011;9505;50.882;5.350;2023-02-15T04:55:45;70.93;;;16.07;;
18752;SDS011;9505;50.882;5.350;2023-02-15T04:58:11;69.20;;;15.57;;
18752;SDS011;9505;50.882;5.350;2023-02-15T05:00:36;79.60;;;15.93;;
18752;SDS011;9505;50.882;5.350;2023-02-15T05:03:02;71.63;;;16.97;;
18752;SDS011;9505;50.882;5.350;2023-02-15T05:05:28;72.30;;;16.87;;
18752;SDS011;9505;50.882;5.350;2023-02-15T05:07:53;83.73;;;18.00;;
18752;SDS011;9505;50.882;5.350;2023-02-15T05:10:19;80.40;;;17.57;;
18752;SDS011;9505;50.882;5.350;2023-02-15T05:12:44;78.27;;;16.37;;
18752;SDS011;9505;50.882;5.350;2023-02-15T05:15:10;86.37;;;17.67;;
18752;SDS011;9505;50.882;5.350;2023-02-15T05:17:36;56.77;;;14.43;;
18752;SDS011;9505;50.882;5.350;2023-02-15T05:20:02;76.70;;;16.83;;
18752;SDS011;9505;50.882;5.350;2023-02-15T05:22:28;75.50;;;18.00;;
18752;SDS011;9505;50.882;5.350;2023-02-15T05:24:54;69.40;;;16.27;;
18752;SDS011;9505;50.882;5.350;2023-02-15T05:27:38;68.73;;;16.97;;
18752;SDS011;9505;50.882;5.350;2023-02-15T05:30:22;81.77;;;19.70;;
18752;SDS011;9505;50.882;5.350;2023-02-15T05:32:47;74.83;;;19.70;;
18752;SDS011;9505;50.882;5.350;2023-02-15T05:35:14;76.27;;;18.67;;
18752;SDS011;9505;50.882;5.350;2023-02-15T05:37:40;83.70;;;21.27;;
18752;SDS011;9505;50.882;5.350;2023-02-15T05:40:06;70.30;;;18.97;;
18752;SDS011;9505;50.882;5.350;2023-02-15T05:42:32;94.60;;;19.50;;
18752;SDS011;9505;50.882;5.350;2023-02-15T05:44:58;80.43;;;18.90;;
18752;SDS011;9505;50.882;5.350;2023-02-15T05:47:24;80.67;;;19.03;;
18752;SDS011;9505;50.882;5.350;2023-02-15T05:49:50;74.33;;;18.67;;
18752;SDS011;9505;50.882;5.350;2023-02-15T05:52:15;75.93;;;19.43;;
18752;SDS011;9505;50.882;5.350;2023-02-15T05:54:41;85.47;;;19.37;;
18752;SDS011;9505;50.882;5.350;2023-02-15T05:57:06;91.03;;;22.73;;
18752;SDS011;9505;50.882;5.350;2023-02-15T05:59:32;83.77;;;19.17;;
18752;SDS011;9505;50.882;5.350;2023-02-15T06:01:58;100.07;;;20.03;;
18752;SDS011;9505;50.882;5.350;2023-02-15T06:04:23;86.73;;;16.97;;
18752;SDS011;9505;50.882;5.350;2023-02-15T06:06:49;91.83;;;19.07;;
18752;SDS011;9505;50.882;5.350;2023-02-15T06:09:14;78.87;;;19.57;;
18752;SDS011;9505;50.882;5.350;2023-02-15T06:11:43;66.13;;;16.77;;
18752;SDS011;9505;50.882;5.350;2023-02-15T06:14:09;71.73;;;16.70;;
18752;SDS011;9505;50.882;5.350;2023-02-15T06:16:34;77.00;;;18.07;;
18752;SDS011;9505;50.882;5.350;2023-02-15T06:19:00;92.97;;;19.50;;
18752;SDS011;9505;50.882;5.350;2023-02-15T06:21:26;81.63;;;18.90;;
18752;SDS011;9505;50.882;5.350;2023-02-15T06:23:52;88.73;;;19.83;;
18752;SDS011;9505;50.882;5.350;2023-02-15T06:26:18;78.70;;;19.80;;
18752;SDS011;9505;50.882;5.350;2023-02-15T06:28:43;77.33;;;19.23;;
18752;SDS011;9505;50.882;5.350;2023-02-15T06:31:09;78.60;;;17.60;;
18752;SDS011;9505;50.882;5.350;2023-02-15T06:33:35;79.17;;;18.53;;
18752;SDS011;9505;50.882;5.350;2023-02-15T06:36:00;76.93;;;17.63;;
18752;SDS011;9505;50.882;5.350;2023-02-15T06:38:27;91.07;;;18.40;;
18752;SDS011;9505;50.882;5.350;2023-02-15T06:40:52;94.87;;;20.43;;
18752;SDS011;9505;50.882;5.350;2023-02-15T06:43:18;80.70;;;17.97;;
18752;SDS011;9505;50.882;5.350;2023-02-15T06:45:43;79.73;;;17.67;;
18752;SDS011;9505;50.882;5.350;2023-02-15T06:48:09;70.83;;;17.90;;
18752;SDS011;9505;50.882;5.350;2023-02-15T06:50:36;81.67;;;19.20;;
18752;SDS011;9505;50.882;5.350;2023-02-15T06:53:02;80.00;;;19.73;;
18752;SDS011;9505;50.882;5.350;2023-02-15T06:55:27;78.70;;;18.23;;
18752;SDS011;9505;50.882;5.350;2023-02-15T06:57:53;70.40;;;17.90;;
18752;SDS011;9505;50.882;5.350;2023-02-15T07:00:18;86.10;;;18.83;;
18752;SDS011;9505;50.882;5.350;2023-02-15T07:02:45;81.53;;;18.27;;
18752;SDS011;9505;50.882;5.350;2023-02-15T07:05:11;79.47;;;17.67;;
18752;SDS011;9505;50.882;5.350;2023-02-15T07:07:36;73.10;;;17.60;;
18752;SDS011;9505;50.882;5.350;2023-02-15T07:10:02;78.17;;;18.57;;
18752;SDS011;9505;50.882;5.350;2023-02-15T07:12:28;87.83;;;18.30;;
18752;SDS011;9505;50.882;5.350;2023-02-15T07:15:06;75.87;;;18.00;;
18752;SDS011;9505;50.882;5.350;2023-02-15T07:17:34;81.23;;;19.83;;
18752;SDS011;9505;50.882;5.350;2023-02-15T07:20:00;84.10;;;21.40;;
18752;SDS011;9505;50.882;5.350;2023-02-15T07:22:26;66.67;;;18.77;;
18752;SDS011;9505;50.882;5.350;2023-02-15T07:24:52;107.67;;;22.60;;
18752;SDS011;9505;50.882;5.350;2023-02-15T07:27:19;91.07;;;20.47;;
18752;SDS011;9505;50.882;5.350;2023-02-15T07:29:46;86.27;;;19.60;;
18752;SDS011;9505;50.882;5.350;2023-02-15T07:32:11;74.97;;;17.27;;
18752;SDS011;9505;50.882;5.350;2023-02-15T07:34:37;83.43;;;18.30;;
18752;SDS011;9505;50.882;5.350;2023-02-15T07:37:03;75.70;;;17.93;;
18752;SDS011;9505;50.882;5.350;2023-02-15T07:39:29;88.17;;;19.93;;
18752;SDS011;9505;50.882;5.350;2023-02-15T07:41:55;86.57;;;21.93;;
18752;SDS011;9505;50.882;5.350;2023-02-15T07:44:20;81.57;;;19.47;;
18752;SDS011;9505;50.882;5.350;2023-02-15T07:46:46;84.10;;;21.07;;
18752;SDS011;9505;50.882;5.350;2023-02-15T07:49:11;82.13;;;20.73;;
18752;SDS011;9505;50.882;5.350;2023-02-15T07:51:37;86.87;;;22.23;;
18752;SDS011;9505;50.882;5.350;2023-02-15T07:54:03;87.13;;;20.10;;
18752;SDS011;9505;50.882;5.350;2023-02-15T07:56:28;85.33;;;22.67;;
18752;SDS011;9505;50.882;5.350;2023-02-15T07:58:54;87.03;;;23.53;;
18752;SDS011;9505;50.882;5.350;2023-02-15T08:01:40;86.13;;;23.73;;
18752;SDS011;9505;50.882;5.350;2023-02-15T08:04:06;98.35;;;23.63;;
18752;SDS011;9505;50.882;5.350;2023-02-15T08:06:34;98.90;;;25.05;;
18752;SDS011;9505;50.882;5.350;2023-02-15T08:09:02;95.88;;;23.08;;
18752;SDS011;9505;50.882;5.350;2023-02-15T08:11:33;99.45;;;25.58;;
18752;SDS011;9505;50.882;5.350;2023-02-15T08:16:44;100.80;;;23.45;;
18752;SDS011;9505;50.882;5.350;2023-02-15T08:19:17;117.72;;;24.85;;
18752;SDS011;9505;50.882;5.350;2023-02-15T08:21:47;106.30;;;25.02;;
18752;SDS011;9505;50.882;5.350;2023-02-15T08:24:16;104.35;;;27.40;;
18752;SDS011;9505;50.882;5.350;2023-02-15T08:26:43;98.15;;;26.40;;
18752;SDS011;9505;50.882;5.350;2023-02-15T08:29:16;98.45;;;25.15;;
18752;SDS011;9505;50.882;5.350;2023-02-15T08:31:43;101.97;;;26.80;;
18752;SDS011;9505;50.882;5.350;2023-02-15T08:34:10;106.63;;;27.35;;
18752;SDS011;9505;50.882;5.350;2023-02-15T08:36:38;87.72;;;26.13;;
18752;SDS011;9505;50.882;5.350;2023-02-15T08:39:04;96.88;;;27.42;;
18752;SDS011;9505;50.882;5.350;2023-02-15T08:41:31;98.60;;;27.45;;
18752;SDS011;9505;50.882;5.350;2023-02-15T08:44:02;104.95;;;28.67;;
18752;SDS011;9505;50.882;5.350;2023-02-15T08:46:31;103.63;;;29.17;;
18752;SDS011;9505;50.882;5.350;2023-02-15T08:48:58;110.90;;;29.25;;
18752;SDS011;9505;50.882;5.350;2023-02-15T08:51:25;106.35;;;29.63;;
18752;SDS011;9505;50.882;5.350;2023-02-15T08:53:59;108.78;;;31.10;;
18752;SDS011;9505;50.882;5.350;2023-02-15T08:56:27;114.22;;;31.17;;
18752;SDS011;9505;50.882;5.350;2023-02-15T08:58:54;112.20;;;32.35;;
18752;SDS011;9505;50.882;5.350;2023-02-15T09:01:22;127.70;;;34.63;;
18752;SDS011;9505;50.882;5.350;2023-02-15T09:03:54;125.85;;;35.67;;
18752;SDS011;9505;50.882;5.350;2023-02-15T09:06:22;123.10;;;34.70;;
18752;SDS011;9505;50.882;5.350;2023-02-15T09:08:48;145.00;;;37.90;;
18752;SDS011;9505;50.882;5.350;2023-02-15T09:11:18;136.27;;;37.35;;
18752;SDS011;9505;50.882;5.350;2023-02-15T09:14:02;133.40;;;37.92;;
18752;SDS011;9505;50.882;5.350;2023-02-15T09:16:30;143.88;;;36.63;;
18752;SDS011;9505;50.882;5.350;2023-02-15T09:18:57;135.15;;;38.97;;
18752;SDS011;9505;50.882;5.350;2023-02-15T09:21:24;138.18;;;38.95;;
18752;SDS011;9505;50.882;5.350;2023-02-15T09:23:52;126.40;;;36.05;;
18752;SDS011;9505;50.882;5.350;2023-02-15T09:26:22;117.10;;;34.65;;
18752;SDS011;9505;50.882;5.350;2023-02-15T09:28:51;125.32;;;36.70;;
18752;SDS011;9505;50.882;5.350;2023-02-15T09:31:20;124.10;;;35.13;;
18752;SDS011;9505;50.882;5.350;2023-02-15T09:33:48;118.50;;;33.50;;
18752;SDS011;9505;50.882;5.350;2023-02-15T09:38:39;100.75;;;29.92;;
18752;SDS011;9505;50.882;5.350;2023-02-15T09:41:49;87.75;;;25.38;;
18752;SDS011;9505;50.882;5.350;2023-02-15T09:44:30;80.43;;;22.42;;
18752;SDS011;9505;50.882;5.350;2023-02-15T09:53:01;62.25;;;17.52;;
18752;SDS011;9505;50.882;5.350;2023-02-15T10:06:23;60.05;;;16.77;;
18752;SDS011;9505;50.882;5.350;2023-02-15T10:11:57;60.70;;;16.77;;
18752;SDS011;9505;50.882;5.350;2023-02-15T10:27:50;60.40;;;16.40;;
18752;SDS011;9505;50.882;5.350;2023-02-15T10:30:35;52.60;;;15.05;;
18752;SDS011;9505;50.882;5.350;2023-02-15T10:33:30;56.47;;;16.25;;
18752;SDS011;9505;50.882;5.350;2023-02-15T10:41:30;58.03;;;15.73;;
18752;SDS011;9505;50.882;5.350;2023-02-15T10:44:07;63.67;;;17.15;;
18752;SDS011;9505;50.882;5.350;2023-02-15T10:46:45;57.30;;;16.15;;
18752;SDS011;9505;50.882;5.350;2023-02-15T10:49:50;62.97;;;16.55;;
18752;SDS011;9505;50.882;5.350;2023-02-15T10:52:56;62.90;;;17.10;;
18752;SDS011;9505;50.882;5.350;2023-02-15T10:55:51;58.95;;;16.23;;
18752;SDS011;9505;50.882;5.350;2023-02-15T11:04:09;63.00;;;17.67;;
18752;SDS011;9505;50.882;5.350;2023-02-15T11:06:56;59.53;;;16.55;;
18752;SDS011;9505;50.882;5.350;2023-02-15T11:09:25;61.53;;;16.17;;
18752;SDS011;9505;50.882;5.350;2023-02-15T11:12:01;63.03;;;17.17;;
18752;SDS011;9505;50.882;5.350;2023-02-15T11:17:09;54.75;;;15.13;;
18752;SDS011;9505;50.882;5.350;2023-02-15T11:20:23;58.28;;;16.38;;
18752;SDS011;9505;50.882;5.350;2023-02-15T11:22:28;53.78;;;16.98;;
18752;SDS011;9505;50.882;5.350;2023-02-15T11:24:56;59.72;;;17.10;;
18752;SDS011;9505;50.882;5.350;2023-02-15T11:27:25;57.45;;;16.55;;
18752;SDS011;9505;50.882;5.350;2023-02-15T11:30:01;62.88;;;16.95;;
18752;SDS011;9505;50.882;5.350;2023-02-15T11:32:33;55.20;;;16.33;;
18752;SDS011;9505;50.882;5.350;2023-02-15T11:37:40;59.63;;;16.25;;
18752;SDS011;9505;50.882;5.350;2023-02-15T11:40:35;60.08;;;16.70;;
18752;SDS011;9505;50.882;5.350;2023-02-15T11:43:07;62.53;;;17.67;;
18752;SDS011;9505;50.882;5.350;2023-02-15T11:45:41;61.60;;;16.70;;
18752;SDS011;9505;50.882;5.350;2023-02-15T11:48:12;54.75;;;15.73;;
18752;SDS011;9505;50.882;5.350;2023-02-15T11:50:39;63.90;;;16.38;;
18752;SDS011;9505;50.882;5.350;2023-02-15T11:53:09;66.30;;;17.25;;
18752;SDS011;9505;50.882;5.350;2023-02-15T11:55:37;62.05;;;16.27;;
18752;SDS011;9505;50.882;5.350;2023-02-15T11:58:08;59.80;;;15.93;;
18752;SDS011;9505;50.882;5.350;2023-02-15T12:00:42;64.40;;;16.00;;
18752;SDS011;9505;50.882;5.350;2023-02-15T12:06:17;55.30;;;14.90;;
18752;SDS011;9505;50.882;5.350;2023-02-15T12:11:46;57.30;;;15.95;;
18752;SDS011;9505;50.882;5.350;2023-02-15T12:14:12;63.40;;;15.70;;
18752;SDS011;9505;50.882;5.350;2023-02-15T12:16:45;60.38;;;17.42;;
18752;SDS011;9505;50.882;5.350;2023-02-15T12:19:30;54.58;;;15.18;;
18752;SDS011;9505;50.882;5.350;2023-02-15T12:22:02;57.50;;;16.67;;
18752;SDS011;9505;50.882;5.350;2023-02-15T12:24:30;55.05;;;15.50;;
18752;SDS011;9505;50.882;5.350;2023-02-15T12:29:26;57.15;;;16.55;;
18752;SDS011;9505;50.882;5.350;2023-02-15T12:31:55;58.08;;;16.92;;
18752;SDS011;9505;50.882;5.350;2023-02-15T12:34:22;51.00;;;15.50;;
18752;SDS011;9505;50.882;5.350;2023-02-15T12:36:54;54.50;;;16.13;;
18752;SDS011;9505;50.882;5.350;2023-02-15T12:39:25;59.25;;;17.63;;
18752;SDS011;9505;50.882;5.350;2023-02-15T12:44:19;64.60;;;16.90;;
18752;SDS011;9505;50.882;5.350;2023-02-15T12:46:55;56.58;;;16.60;;
18752;SDS011;9505;50.882;5.350;2023-02-15T12:49:21;55.33;;;16.10;;
18752;SDS011;9505;50.882;5.350;2023-02-15T12:56:54;59.60;;;17.20;;
18752;SDS011;9505;50.882;5.350;2023-02-15T12:59:22;56.15;;;16.15;;
18752;SDS011;9505;50.882;5.350;2023-02-15T13:01:48;57.88;;;17.17;;
18752;SDS011;9505;50.882;5.350;2023-02-15T13:06:51;59.80;;;16.75;;
18752;SDS011;9505;50.882;5.350;2023-02-15T13:11:45;55.65;;;18.02;;
18752;SDS011;9505;50.882;5.350;2023-02-15T13:16:45;63.83;;;17.58;;
18752;SDS011;9505;50.882;5.350;2023-02-15T13:19:17;64.63;;;17.90;;
18752;SDS011;9505;50.882;5.350;2023-02-15T13:21:49;60.20;;;17.02;;
18752;SDS011;9505;50.882;5.350;2023-02-15T13:27:13;59.30;;;16.48;;
18752;SDS011;9505;50.882;5.350;2023-02-15T13:29:54;69.93;;;17.45;;
18752;SDS011;9505;50.882;5.350;2023-02-15T13:32:31;61.58;;;16.90;;
18752;SDS011;9505;50.882;5.350;2023-02-15T13:35:02;68.13;;;18.10;;
18752;SDS011;9505;50.882;5.350;2023-02-15T13:40:33;57.15;;;16.08;;
18752;SDS011;9505;50.882;5.350;2023-02-15T13:43:12;59.90;;;16.48;;
18752;SDS011;9505;50.882;5.350;2023-02-15T13:50:50;57.25;;;16.90;;
18752;SDS011;9505;50.882;5.350;2023-02-15T14:01:49;78.93;;;19.25;;
18752;SDS011;9505;50.882;5.350;2023-02-15T14:07:18;66.60;;;16.77;;
18752;SDS011;9505;50.882;5.350;2023-02-15T14:13:05;49.60;;;14.35;;
18752;SDS011;9505;50.882;5.350;2023-02-15T14:21:03;57.38;;;16.40;;
18752;SDS011;9505;50.882;5.350;2023-02-15T14:29:16;92.38;;;21.33;;
18752;SDS011;9505;50.882;5.350;2023-02-15T14:32:04;77.95;;;19.10;;
18752;SDS011;9505;50.882;5.350;2023-02-15T14:34:41;75.13;;;19.23;;
18752;SDS011;9505;50.882;5.350;2023-02-15T14:37:17;54.35;;;15.63;;
18752;SDS011;9505;50.882;5.350;2023-02-15T14:42:58;52.95;;;16.15;;
18752;SDS011;9505;50.882;5.350;2023-02-15T14:48:12;55.15;;;16.25;;
18752;SDS011;9505;50.882;5.350;2023-02-15T14:50:46;61.88;;;16.77;;
18752;SDS011;9505;50.882;5.350;2023-02-15T15:01:24;71.35;;;18.17;;
18752;SDS011;9505;50.882;5.350;2023-02-15T15:03:51;71.35;;;17.65;;
18752;SDS011;9505;50.882;5.350;2023-02-15T15:06:28;65.70;;;18.17;;
18752;SDS011;9505;50.882;5.350;2023-02-15T15:11:39;61.28;;;16.85;;
18752;SDS011;9505;50.882;5.350;2023-02-15T15:14:07;68.72;;;18.80;;
18752;SDS011;9505;50.882;5.350;2023-02-15T15:19:03;54.40;;;16.30;;
18752;SDS011;9505;50.882;5.350;2023-02-15T15:30:52;57.60;;;16.35;;
18752;SDS011;9505;50.882;5.350;2023-02-15T15:35:30;60.72;;;17.63;;
18752;SDS011;9505;50.882;5.350;2023-02-15T15:46:47;83.00;;;20.23;;
18752;SDS011;9505;50.882;5.350;2023-02-15T15:49:30;61.22;;;17.20;;
18752;SDS011;9505;50.882;5.350;2023-02-15T15:52:01;55.97;;;17.08;;
18752;SDS011;9505;50.882;5.350;2023-02-15T15:54:33;58.80;;;17.55;;
18752;SDS011;9505;50.882;5.350;2023-02-15T15:57:03;67.45;;;18.63;;
18752;SDS011;9505;50.882;5.350;2023-02-15T15:59:32;82.03;;;20.98;;
18752;SDS011;9505;50.882;5.350;2023-02-15T16:02:05;78.72;;;19.95;;
18752;SDS011;9505;50.882;5.350;2023-02-15T16:04:32;86.45;;;21.73;;
18752;SDS011;9505;50.882;5.350;2023-02-15T16:12:20;83.53;;;21.75;;
18752;SDS011;9505;50.882;5.350;2023-02-15T16:14:46;84.13;;;21.13;;
18752;SDS011;9505;50.882;5.350;2023-02-15T16:17:22;83.20;;;21.23;;
18752;SDS011;9505;50.882;5.350;2023-02-15T16:19:49;80.72;;;20.65;;
18752;SDS011;9505;50.882;5.350;2023-02-15T16:22:20;66.22;;;19.77;;
18752;SDS011;9505;50.882;5.350;2023-02-15T16:30:10;74.72;;;20.10;;
18752;SDS011;9505;50.882;5.350;2023-02-15T16:32:42;75.07;;;21.55;;
18752;SDS011;9505;50.882;5.350;2023-02-15T16:35:17;77.32;;;21.15;;
18752;SDS011;9505;50.882;5.350;2023-02-15T16:37:44;102.55;;;24.10;;
18752;SDS011;9505;50.882;5.350;2023-02-15T16:40:56;74.57;;;21.80;;
18752;SDS011;9505;50.882;5.350;2023-02-15T16:43:04;80.50;;;22.13;;
18752;SDS011;9505;50.882;5.350;2023-02-15T16:45:36;86.30;;;21.58;;
18752;SDS011;9505;50.882;5.350;2023-02-15T16:48:05;91.60;;;23.42;;
18752;SDS011;9505;50.882;5.350;2023-02-15T16:50:36;90.60;;;22.95;;
18752;SDS011;9505;50.882;5.350;2023-02-15T16:53:03;79.78;;;22.65;;
18752;SDS011;9505;50.882;5.350;2023-02-15T16:55:35;71.25;;;20.58;;
18752;SDS011;9505;50.882;5.350;2023-02-15T16:58:06;69.63;;;19.50;;
18752;SDS011;9505;50.882;5.350;2023-02-15T17:00:38;72.47;;;20.83;;
18752;SDS011;9505;50.882;5.350;2023-02-15T17:03:40;70.93;;;21.70;;
18752;SDS011;9505;50.882;5.350;2023-02-15T17:05:59;98.35;;;25.08;;
18752;SDS011;9505;50.882;5.350;2023-02-15T17:08:29;85.95;;;23.67;;
18752;SDS011;9505;50.882;5.350;2023-02-15T17:13:34;86.30;;;23.30;;
18752;SDS011;9505;50.882;5.350;2023-02-15T17:18:38;81.43;;;22.38;;
18752;SDS011;9505;50.882;5.350;2023-02-15T17:21:10;60.10;;;20.25;;
18752;SDS011;9505;50.882;5.350;2023-02-15T17:23:50;91.88;;;25.27;;
18752;SDS011;9505;50.882;5.350;2023-02-15T17:26:24;74.32;;;22.92;;
18752;SDS011;9505;50.882;5.350;2023-02-15T17:29:22;103.57;;;25.83;;
18752;SDS011;9505;50.882;5.350;2023-02-15T17:31:50;70.15;;;21.98;;
18752;SDS011;9505;50.882;5.350;2023-02-15T17:37:12;87.20;;;25.55;;
18752;SDS011;9505;50.882;5.350;2023-02-15T17:39:48;102.85;;;25.67;;
18752;SDS011;9505;50.882;5.350;2023-02-15T17:42:13;99.65;;;25.75;;
18752;SDS011;9505;50.882;5.350;2023-02-15T17:44:39;76.80;;;21.77;;
18752;SDS011;9505;50.882;5.350;2023-02-15T17:47:05;91.07;;;24.65;;
18752;SDS011;9505;50.882;5.350;2023-02-15T17:49:30;81.43;;;23.73;;
18752;SDS011;9505;50.882;5.350;2023-02-15T17:52:00;99.22;;;26.40;;
18752;SDS011;9505;50.882;5.350;2023-02-15T17:54:26;84.53;;;24.50;;
18752;SDS011;9505;50.882;5.350;2023-02-15T17:57:12;94.18;;;25.52;;
18752;SDS011;9505;50.882;5.350;2023-02-15T17:59:38;101.28;;;27.08;;
18752;SDS011;9505;50.882;5.350;2023-02-15T18:02:23;80.38;;;22.60;;
18752;SDS011;9505;50.882;5.350;2023-02-15T18:05:13;75.07;;;23.02;;
18752;SDS011;9505;50.882;5.350;2023-02-15T18:07:57;102.55;;;25.30;;
18752;SDS011;9505;50.882;5.350;2023-02-15T18:10:42;81.38;;;22.70;;
18752;SDS011;9505;50.882;5.350;2023-02-15T18:13:26;91.90;;;23.90;;
18752;SDS011;9505;50.882;5.350;2023-02-15T18:15:51;80.05;;;22.60;;
18752;SDS011;9505;50.882;5.350;2023-02-15T18:18:17;73.35;;;20.40;;
18752;SDS011;9505;50.882;5.350;2023-02-15T18:20:43;92.32;;;22.52;;